createdAt,value
2019-06-26T00:00:50.270Z,100697.00
2019-06-26T00:03:23.164Z,100692.00
2019-06-26T00:05:55.979Z,100691.00
2019-06-26T00:08:28.789Z,100698.00
2019-06-26T00:11:01.823Z,100692.00
2019-06-26T00:13:34.622Z,100686.00
2019-06-26T00:16:07.445Z,100696.00
2019-06-26T00:18:40.316Z,100690.00
2019-06-26T00:21:15.033Z,100700.00
2019-06-26T00:23:47.944Z,100695.00
2019-06-26T00:26:20.973Z,100690.00
2019-06-26T00:28:53.766Z,100700.00
2019-06-26T00:31:26.626Z,100697.00
2019-06-26T00:33:59.496Z,100695.00
2019-06-26T00:36:33.207Z,100685.00
2019-06-26T00:39:06.593Z,100687.00
2019-06-26T00:41:39.527Z,100695.00
2019-06-26T00:44:12.352Z,100682.00
2019-06-26T00:46:45.271Z,100686.00
2019-06-26T00:49:18.418Z,100693.00
2019-06-26T00:51:51.266Z,100697.00
2019-06-26T00:54:24.228Z,100700.00
2019-06-26T00:56:57.145Z,100694.00
2019-06-26T00:59:29.961Z,100697.00
2019-06-26T01:02:02.944Z,100696.00
2019-06-26T01:04:38.959Z,100697.00
2019-06-26T01:07:11.769Z,100705.00
2019-06-26T01:09:44.682Z,100706.00
2019-06-26T01:12:17.605Z,100706.00
2019-06-26T01:14:50.560Z,100707.00
2019-06-26T01:17:24.386Z,100712.00
2019-06-26T01:19:57.190Z,100710.00
2019-06-26T01:22:30.065Z,100701.00
2019-06-26T01:25:03.216Z,100715.00
2019-06-26T01:27:36.344Z,100709.00
2019-06-26T01:30:09.869Z,100698.00
2019-06-26T01:32:42.726Z,100701.00
2019-06-26T01:35:15.541Z,100715.00
2019-06-26T01:37:48.355Z,100724.00
2019-06-26T01:40:21.164Z,100720.00
2019-06-26T01:42:54.020Z,100723.00
2019-06-26T01:45:26.870Z,100726.00
2019-06-26T01:47:59.739Z,100722.00
2019-06-26T01:50:32.598Z,100719.00
2019-06-26T01:53:05.472Z,100726.00
2019-06-26T01:55:38.524Z,100724.00
2019-06-26T01:58:11.426Z,100723.00
2019-06-26T02:00:45.647Z,100721.00
2019-06-26T02:03:18.690Z,100722.00
2019-06-26T02:05:51.505Z,100722.00
2019-06-26T02:08:24.311Z,100734.00
2019-06-26T02:10:57.229Z,100727.00
2019-06-26T02:13:30.106Z,100718.00
2019-06-26T02:16:03.324Z,100715.00
2019-06-26T02:18:40.632Z,100725.00
2019-06-26T02:21:14.425Z,100708.00
2019-06-26T02:23:47.258Z,100712.00
2019-06-26T02:26:20.705Z,100717.00
2019-06-26T02:28:53.536Z,100712.00
2019-06-26T02:31:26.356Z,100709.00
2019-06-26T02:33:59.175Z,100703.00
2019-06-26T02:36:31.975Z,100702.00
2019-06-26T02:39:06.192Z,100709.00
2019-06-26T02:41:39.038Z,100709.00
2019-06-26T02:44:11.898Z,100709.00
2019-06-26T02:46:44.707Z,100708.00
2019-06-26T02:49:17.533Z,100711.00
2019-06-26T02:51:50.333Z,100710.00
2019-06-26T02:54:24.026Z,100708.00
2019-06-26T02:56:56.980Z,100703.00
2019-06-26T02:59:29.841Z,100709.00
2019-06-26T03:02:02.770Z,100715.00
2019-06-26T03:04:35.585Z,100711.00
2019-06-26T03:07:08.419Z,100714.00
2019-06-26T03:09:41.293Z,100707.00
2019-06-26T03:12:15.259Z,100708.00
2019-06-26T03:14:48.134Z,100720.00
2019-06-26T03:17:21.263Z,100712.00
2019-06-26T03:19:54.040Z,100712.00
2019-06-26T03:22:28.837Z,100724.00
2019-06-26T03:25:01.588Z,100713.00
2019-06-26T03:27:34.444Z,100719.00
2019-06-26T03:30:08.872Z,100724.00
2019-06-26T03:32:41.931Z,100720.00
2019-06-26T03:35:14.792Z,100728.00
2019-06-26T03:37:47.633Z,100732.00
2019-06-26T03:40:20.477Z,100734.00
2019-06-26T03:42:53.359Z,100736.00
2019-06-26T03:45:26.648Z,100748.00
2019-06-26T03:47:59.729Z,100740.00
2019-06-26T03:50:32.631Z,100738.00
2019-06-26T03:53:05.815Z,100745.00
2019-06-26T03:55:39.990Z,100748.00
2019-06-26T03:58:12.844Z,100746.00
2019-06-26T04:00:45.806Z,100745.00
2019-06-26T04:03:18.640Z,100745.00
2019-06-26T04:05:51.509Z,100749.00
2019-06-26T04:08:24.567Z,100755.00
2019-06-26T04:10:57.331Z,100765.00
2019-06-26T04:13:30.315Z,100767.00
2019-06-26T04:16:03.346Z,100770.00
2019-06-26T04:18:36.250Z,100777.00
2019-06-26T04:21:09.164Z,100776.00
2019-06-26T04:23:42.009Z,100781.00
2019-06-26T04:26:14.824Z,100795.00
2019-06-26T04:28:47.744Z,100784.00
2019-06-26T04:31:20.573Z,100787.00
2019-06-26T04:33:53.333Z,100791.00
2019-06-26T04:36:26.213Z,100787.00
2019-06-26T04:38:59.064Z,100792.00
2019-06-26T04:41:31.977Z,100807.00
2019-06-26T04:44:04.881Z,100802.00
2019-06-26T04:46:37.671Z,100807.00
2019-06-26T04:49:10.503Z,100809.00
2019-06-26T04:51:43.318Z,100808.00
2019-06-26T04:54:17.970Z,100822.00
2019-06-26T04:56:50.756Z,100831.00
2019-06-26T04:59:23.624Z,100825.00
2019-06-26T05:01:56.462Z,100820.00
2019-06-26T05:04:29.288Z,100844.00
2019-06-26T05:07:02.135Z,100843.00
2019-06-26T05:09:35.027Z,100839.00
2019-06-26T05:12:07.824Z,100845.00
2019-06-26T05:14:40.634Z,100849.00
2019-06-26T05:17:13.473Z,100838.00
2019-06-26T05:19:46.462Z,100851.00
2019-06-26T05:22:19.282Z,100856.00
2019-06-26T05:24:52.146Z,100860.00
2019-06-26T05:27:24.957Z,100861.00
2019-06-26T05:29:58.784Z,100864.00
2019-06-26T05:32:31.700Z,100864.00
2019-06-26T05:35:05.608Z,100870.00
2019-06-26T05:37:38.480Z,100860.00
2019-06-26T05:40:12.418Z,100864.00
2019-06-26T05:42:45.314Z,100867.00
2019-06-26T05:45:18.977Z,100877.00
2019-06-26T05:47:51.826Z,100879.00
2019-06-26T05:50:25.050Z,100880.00
2019-06-26T05:52:57.886Z,100890.00
2019-06-26T05:55:30.789Z,100879.00
2019-06-26T05:58:03.757Z,100893.00
2019-06-26T06:00:36.551Z,100894.00
2019-06-26T06:03:09.381Z,100901.00
2019-06-26T06:05:42.280Z,100889.00
2019-06-26T06:08:15.144Z,100892.00
2019-06-26T06:10:48.539Z,100902.00
2019-06-26T06:13:21.491Z,100889.00
2019-06-26T06:15:54.297Z,100904.00
2019-06-26T06:18:27.132Z,100899.00
2019-06-26T06:20:59.975Z,100892.00
2019-06-26T06:23:33.995Z,100892.00
2019-06-26T06:26:06.819Z,100907.00
2019-06-26T06:28:39.772Z,100910.00
2019-06-26T06:31:12.620Z,100900.00
2019-06-26T06:33:45.491Z,100902.00
2019-06-26T06:36:18.371Z,100905.00
2019-06-26T06:38:51.502Z,100919.00
2019-06-26T06:41:24.467Z,100923.00
2019-06-26T06:43:57.310Z,100913.00
2019-06-26T06:46:30.156Z,100912.00
2019-06-26T06:49:03.271Z,100931.00
2019-06-26T06:51:36.190Z,100946.00
2019-06-26T06:54:09.021Z,100934.00
2019-06-26T06:56:41.928Z,100940.00
2019-06-26T06:59:14.764Z,100940.00
2019-06-26T07:01:47.714Z,100950.00
2019-06-26T07:04:20.539Z,100953.00
2019-06-26T07:06:53.379Z,100950.00
2019-06-26T07:09:26.215Z,100953.00
2019-06-26T07:11:59.090Z,100949.00
2019-06-26T07:14:31.862Z,100956.00
2019-06-26T07:17:19.448Z,100957.00
2019-06-26T07:19:39.479Z,100968.00
2019-06-26T07:22:12.306Z,100954.00
2019-06-26T07:24:45.152Z,100967.00
2019-06-26T07:27:20.559Z,100958.00
2019-06-26T07:29:53.377Z,100974.00
2019-06-26T07:32:26.242Z,100968.00
2019-06-26T07:34:59.210Z,100965.00
2019-06-26T07:37:32.116Z,100966.00
2019-06-26T07:40:06.864Z,100962.00
2019-06-26T07:42:41.823Z,100975.00
2019-06-26T07:45:16.545Z,100973.00
2019-06-26T07:47:49.379Z,100968.00
2019-06-26T07:50:22.229Z,100974.00
2019-06-26T07:52:55.084Z,100984.00
2019-06-26T07:55:27.932Z,100990.00
2019-06-26T07:58:00.782Z,100979.00
2019-06-26T08:00:33.586Z,100979.00
2019-06-26T08:03:06.541Z,100990.00
2019-06-26T08:05:42.702Z,100997.00
2019-06-26T08:08:14.914Z,100997.00
2019-06-26T08:10:47.989Z,100993.00
2019-06-26T08:13:23.803Z,101001.00
2019-06-26T08:15:56.619Z,101000.00
2019-06-26T08:18:29.462Z,100998.00
2019-06-26T08:21:12.109Z,101001.00
2019-06-26T08:23:38.140Z,100997.00
2019-06-26T08:26:11.091Z,100997.00
2019-06-26T08:28:43.946Z,101014.00
2019-06-26T08:31:16.780Z,101012.00
2019-06-26T08:33:49.706Z,101010.00
2019-06-26T08:36:22.522Z,101006.00
2019-06-26T08:38:55.471Z,101001.00
2019-06-26T08:41:28.324Z,101014.00
2019-06-26T08:44:01.181Z,101015.00
2019-06-26T08:46:34.052Z,101020.00
2019-06-26T08:49:21.129Z,101005.00
2019-06-26T08:51:43.027Z,101018.00
2019-06-26T08:54:15.916Z,101017.00
2019-06-26T08:56:48.864Z,101012.00
2019-06-26T08:59:21.687Z,101008.00
2019-06-26T09:01:54.541Z,101009.00
2019-06-26T09:04:27.360Z,101000.00
2019-06-26T09:07:00.198Z,101004.00
2019-06-26T09:09:33.070Z,100997.00
2019-06-26T09:12:05.907Z,101004.00
2019-06-26T09:14:38.743Z,101008.00
2019-06-26T09:17:11.553Z,101002.00
2019-06-26T09:19:44.357Z,101003.00
2019-06-26T09:22:18.273Z,101001.00
2019-06-26T09:24:51.344Z,101001.00
2019-06-26T09:27:24.157Z,101001.00
2019-06-26T09:29:57.188Z,100998.00
2019-06-26T09:32:30.012Z,100996.00
2019-06-26T09:35:03.308Z,100994.00
2019-06-26T09:37:37.135Z,100991.00
2019-06-26T09:40:10.664Z,101002.00
2019-06-26T09:42:43.710Z,101006.00
2019-06-26T09:45:19.514Z,100994.00
2019-06-26T09:47:52.315Z,100998.00
2019-06-26T09:50:25.167Z,101000.00
2019-06-26T09:52:58.074Z,100996.00
2019-06-26T09:55:30.859Z,100997.00
2019-06-26T09:58:03.831Z,100995.00
2019-06-26T10:00:36.747Z,100986.00
2019-06-26T10:03:09.919Z,100996.00
2019-06-26T10:05:42.704Z,100993.00
2019-06-26T10:08:15.595Z,100989.00
2019-06-26T10:10:48.402Z,100996.00
2019-06-26T10:13:21.557Z,100998.00
2019-06-26T10:15:54.499Z,100993.00
2019-06-26T10:18:27.365Z,100999.00
2019-06-26T10:21:00.447Z,100990.00
2019-06-26T10:23:33.353Z,100993.00
2019-06-26T10:26:06.366Z,100989.00
2019-06-26T10:28:39.313Z,100988.00
2019-06-26T10:31:12.274Z,100992.00
2019-06-26T10:33:47.858Z,101001.00
2019-06-26T10:36:24.343Z,100998.00
2019-06-26T10:38:55.439Z,100991.00
2019-06-26T10:41:28.390Z,100983.00
2019-06-26T10:44:01.243Z,100985.00
2019-06-26T10:46:34.183Z,100994.00
2019-06-26T10:49:07.045Z,100987.00
2019-06-26T10:51:39.874Z,100988.00
2019-06-26T10:54:12.709Z,100985.00
2019-06-26T10:56:45.678Z,100989.00
2019-06-26T10:59:18.529Z,100982.00
2019-06-26T11:01:51.391Z,100978.00
2019-06-26T11:04:24.302Z,100984.00
2019-06-26T11:06:57.646Z,100985.00
2019-06-26T11:09:31.603Z,100988.00
2019-06-26T11:12:04.510Z,100989.00
2019-06-26T11:14:37.492Z,100977.00
2019-06-26T11:17:10.332Z,100972.00
2019-06-26T11:19:44.562Z,100983.00
2019-06-26T11:22:17.676Z,100975.00
2019-06-26T11:24:50.623Z,100964.00
2019-06-26T11:27:23.692Z,100968.00
2019-06-26T11:29:56.508Z,100972.00
2019-06-26T11:32:29.457Z,100964.00
2019-06-26T11:35:02.834Z,100957.00
2019-06-26T11:37:36.361Z,100955.00
2019-06-26T11:40:10.095Z,100955.00
2019-06-26T11:42:43.095Z,100949.00
2019-06-26T11:45:16.766Z,100956.00
2019-06-26T11:47:49.787Z,100953.00
2019-06-26T11:50:23.143Z,100954.00
2019-06-26T11:52:56.214Z,100952.00
2019-06-26T11:55:29.228Z,100942.00
2019-06-26T11:58:02.357Z,100948.00
2019-06-26T12:00:35.772Z,100935.00
2019-06-26T12:03:08.762Z,100939.00
2019-06-26T12:05:41.755Z,100940.00
2019-06-26T12:08:18.309Z,100941.00
2019-06-26T12:10:49.876Z,100931.00
2019-06-26T12:13:22.956Z,100943.00
2019-06-26T12:15:56.097Z,100935.00
2019-06-26T12:18:29.066Z,100928.00
2019-06-26T12:21:02.204Z,100936.00
2019-06-26T12:23:35.141Z,100931.00
2019-06-26T12:26:09.427Z,100928.00
2019-06-26T12:28:42.404Z,100929.00
2019-06-26T12:31:16.434Z,100932.00
2019-06-26T12:33:49.314Z,100932.00
2019-06-26T12:36:22.381Z,100931.00
2019-06-26T12:38:55.341Z,100933.00
2019-06-26T12:41:28.402Z,100923.00
2019-06-26T12:44:01.359Z,100929.00
2019-06-26T12:46:34.349Z,100925.00
2019-06-26T12:49:08.838Z,100924.00
2019-06-26T12:51:41.653Z,100914.00
2019-06-26T12:54:14.567Z,100921.00
2019-06-26T12:56:47.448Z,100921.00
2019-06-26T12:59:20.417Z,100915.00
2019-06-26T13:01:53.361Z,100914.00
2019-06-26T13:04:26.368Z,100916.00
2019-06-26T13:07:00.438Z,100914.00
2019-06-26T13:09:33.317Z,100906.00
2019-06-26T13:12:06.204Z,100904.00
2019-06-26T13:14:39.292Z,100900.00
2019-06-26T13:17:12.930Z,100893.00
2019-06-26T13:19:45.932Z,100900.00
2019-06-26T13:22:18.862Z,100898.00
2019-06-26T13:24:51.713Z,100891.00
2019-06-26T13:27:24.547Z,100894.00
2019-06-26T13:29:57.494Z,100890.00
2019-06-26T13:32:30.407Z,100892.00
2019-06-26T13:35:03.944Z,100890.00
2019-06-26T13:37:36.885Z,100894.00
2019-06-26T13:40:10.028Z,100890.00
2019-06-26T13:42:42.841Z,100885.00
2019-06-26T13:45:15.876Z,100886.00
2019-06-26T13:47:48.644Z,100881.00
2019-06-26T13:50:21.819Z,100885.00
2019-06-26T13:52:54.623Z,100885.00
2019-06-26T13:55:27.476Z,100885.00
2019-06-26T13:58:00.349Z,100889.00
2019-06-26T14:00:33.232Z,100877.00
2019-06-26T14:03:06.052Z,100881.00
2019-06-26T14:05:38.951Z,100880.00
2019-06-26T14:08:11.907Z,100873.00
2019-06-26T14:10:44.789Z,100877.00
2019-06-26T14:13:17.689Z,100879.00
2019-06-26T14:15:50.522Z,100878.00
2019-06-26T14:18:23.360Z,100873.00
2019-06-26T14:20:56.193Z,100873.00
2019-06-26T14:23:29.010Z,100874.00
2019-06-26T14:26:01.866Z,100869.00
2019-06-26T14:28:34.766Z,100867.00
2019-06-26T14:31:08.065Z,100865.00
2019-06-26T14:33:42.846Z,100861.00
2019-06-26T14:36:15.860Z,100869.00
2019-06-26T14:38:48.663Z,100872.00
2019-06-26T14:41:21.557Z,100871.00
2019-06-26T14:43:54.461Z,100865.00
2019-06-26T14:46:29.120Z,100863.00
2019-06-26T14:49:02.060Z,100868.00
2019-06-26T14:51:43.921Z,100860.00
2019-06-26T14:54:09.606Z,100861.00
2019-06-26T14:56:42.465Z,100864.00
2019-06-26T14:59:16.406Z,100853.00
2019-06-26T15:01:49.342Z,100868.00
2019-06-26T15:04:22.164Z,100857.00
2019-06-26T15:06:55.010Z,100860.00
2019-06-26T15:09:27.854Z,100862.00
2019-06-26T15:12:00.736Z,100852.00
2019-06-26T15:14:34.153Z,100861.00
2019-06-26T15:17:07.025Z,100851.00
2019-06-26T15:19:40.929Z,100850.00
2019-06-26T15:22:13.786Z,100848.00
2019-06-26T15:24:46.979Z,100847.00
2019-06-26T15:27:19.800Z,100844.00
2019-06-26T15:29:52.752Z,100834.00
2019-06-26T15:32:25.783Z,100844.00
2019-06-26T15:34:58.616Z,100850.00
2019-06-26T15:37:31.603Z,100836.00
2019-06-26T15:40:06.656Z,100834.00
2019-06-26T15:42:39.501Z,100844.00
2019-06-26T15:45:12.957Z,100828.00
2019-06-26T15:47:46.868Z,100834.00
2019-06-26T15:50:20.005Z,100813.00
2019-06-26T15:52:52.899Z,100823.00
2019-06-26T15:55:25.722Z,100817.00
2019-06-26T15:57:58.780Z,100816.00
2019-06-26T16:00:31.723Z,100813.00
2019-06-26T16:03:04.828Z,100813.00
2019-06-26T16:05:37.664Z,100804.00
2019-06-26T16:08:10.530Z,100807.00
2019-06-26T16:10:43.427Z,100806.00
2019-06-26T16:13:16.275Z,100805.00
2019-06-26T16:15:50.217Z,100798.00
2019-06-26T16:18:43.366Z,100802.00
2019-06-26T16:21:17.442Z,100798.00
2019-06-26T16:23:50.293Z,100800.00
2019-06-26T16:26:23.236Z,100789.00
2019-06-26T16:28:56.048Z,100792.00
2019-06-26T16:31:28.890Z,100796.00
2019-06-26T16:34:01.714Z,100796.00
2019-06-26T16:36:34.755Z,100794.00
2019-06-26T16:39:08.029Z,100795.00
2019-06-26T16:41:41.071Z,100797.00
2019-06-26T16:44:14.087Z,100782.00
2019-06-26T16:46:47.082Z,100786.00
2019-06-26T16:49:20.027Z,100787.00
2019-06-26T16:51:52.956Z,100779.00
2019-06-26T16:54:26.028Z,100784.00
2019-06-26T16:56:59.005Z,100791.00
2019-06-26T16:59:31.888Z,100789.00
2019-06-26T17:02:07.034Z,100782.00
2019-06-26T17:04:39.795Z,100787.00
2019-06-26T17:07:12.769Z,100786.00
2019-06-26T17:09:45.731Z,100777.00
2019-06-26T17:12:19.046Z,100788.00
2019-06-26T17:14:52.152Z,100772.00
2019-06-26T17:17:25.083Z,100778.00
2019-06-26T17:19:58.154Z,100779.00
2019-06-26T17:22:32.274Z,100779.00
2019-06-26T17:25:05.881Z,100783.00
2019-06-26T17:27:38.924Z,100782.00
2019-06-26T17:30:12.644Z,100777.00
2019-06-26T17:32:45.819Z,100777.00
2019-06-26T17:35:18.831Z,100780.00
2019-06-26T17:37:51.774Z,100779.00
2019-06-26T17:40:24.898Z,100776.00
2019-06-26T17:43:11.305Z,100778.00
2019-06-26T17:45:32.718Z,100782.00
2019-06-26T17:48:05.609Z,100785.00
2019-06-26T17:50:38.594Z,100776.00
2019-06-26T17:53:21.051Z,100772.00
2019-06-26T17:55:46.483Z,100778.00
2019-06-26T17:58:19.361Z,100781.00
2019-06-26T18:00:52.381Z,100782.00
2019-06-26T18:03:25.334Z,100778.00
2019-06-26T18:05:58.284Z,100784.00
2019-06-26T18:08:31.361Z,100783.00
2019-06-26T18:11:04.333Z,100774.00
2019-06-26T18:13:37.385Z,100775.00
2019-06-26T18:16:10.211Z,100778.00
2019-06-26T18:18:43.069Z,100781.00
2019-06-26T18:21:15.933Z,100783.00
2019-06-26T18:23:49.027Z,100777.00
2019-06-26T18:26:21.929Z,100784.00
2019-06-26T18:28:54.868Z,100787.00
2019-06-26T18:31:30.547Z,100785.00
2019-06-26T18:34:02.465Z,100782.00
2019-06-26T18:36:36.553Z,100783.00
2019-06-26T18:39:09.494Z,100786.00
2019-06-26T18:41:42.313Z,100783.00
2019-06-26T18:44:15.343Z,100789.00
2019-06-26T18:46:48.210Z,100788.00
2019-06-26T18:49:21.183Z,100789.00
2019-06-26T18:51:54.043Z,100789.00
2019-06-26T18:54:27.045Z,100782.00
2019-06-26T18:57:00.034Z,100789.00
2019-06-26T18:59:32.908Z,100792.00
2019-06-26T19:02:06.440Z,100782.00
2019-06-26T19:04:39.429Z,100779.00
2019-06-26T19:07:12.429Z,100778.00
2019-06-26T19:09:45.296Z,100783.00
2019-06-26T19:12:18.145Z,100780.00
2019-06-26T19:14:51.290Z,100786.00
2019-06-26T19:17:24.520Z,100792.00
2019-06-26T19:19:57.435Z,100787.00
2019-06-26T19:22:30.424Z,100786.00
2019-06-26T19:25:04.015Z,100788.00
2019-06-26T19:27:37.005Z,100793.00
2019-06-26T19:30:11.594Z,100797.00
2019-06-26T19:32:44.681Z,100786.00
2019-06-26T19:35:19.446Z,100782.00
2019-06-26T19:37:52.547Z,100792.00
2019-06-26T19:40:25.546Z,100791.00
2019-06-26T19:42:58.571Z,100797.00
2019-06-26T19:45:31.580Z,100804.00
2019-06-26T19:48:04.815Z,100801.00
2019-06-26T19:50:37.729Z,100800.00
2019-06-26T19:53:10.629Z,100802.00
2019-06-26T19:55:43.531Z,100800.00
2019-06-26T19:58:16.439Z,100805.00
2019-06-26T20:00:49.517Z,100808.00
2019-06-26T20:03:22.539Z,100811.00
2019-06-26T20:05:55.433Z,100810.00
2019-06-26T20:08:28.275Z,100812.00
2019-06-26T20:11:01.190Z,100823.00
2019-06-26T20:13:34.163Z,100824.00
2019-06-26T20:16:07.160Z,100827.00
2019-06-26T20:18:40.087Z,100824.00
2019-06-26T20:21:13.085Z,100833.00
2019-06-26T20:23:46.222Z,100836.00
2019-06-26T20:26:19.256Z,100847.00
2019-06-26T20:28:52.366Z,100837.00
2019-06-26T20:31:25.211Z,100844.00
2019-06-26T20:33:58.179Z,100849.00
2019-06-26T20:36:31.060Z,100851.00
2019-06-26T20:39:05.086Z,100848.00
2019-06-26T20:41:38.395Z,100858.00
2019-06-26T20:44:11.378Z,100859.00
2019-06-26T20:46:46.047Z,100858.00
2019-06-26T20:49:19.054Z,100856.00
2019-06-26T20:51:51.922Z,100867.00
2019-06-26T20:54:25.172Z,100875.00
2019-06-26T20:57:00.005Z,100875.00
2019-06-26T20:59:32.801Z,100878.00
2019-06-26T21:02:05.693Z,100874.00
2019-06-26T21:04:38.650Z,100881.00
2019-06-26T21:07:11.553Z,100880.00
2019-06-26T21:09:44.351Z,100879.00
2019-06-26T21:12:17.154Z,100877.00
2019-06-26T21:14:49.948Z,100887.00
2019-06-26T21:17:25.668Z,100889.00
2019-06-26T21:19:57.603Z,100894.00
2019-06-26T21:22:30.460Z,100893.00
2019-06-26T21:25:17.862Z,100894.00
2019-06-26T21:27:39.340Z,100897.00
2019-06-26T21:30:12.946Z,100900.00
2019-06-26T21:32:45.910Z,100896.00
2019-06-26T21:35:18.986Z,100894.00
2019-06-26T21:37:51.985Z,100897.00
2019-06-26T21:40:25.199Z,100896.00
2019-06-26T21:42:58.179Z,100891.00
2019-06-26T21:45:31.143Z,100899.00
2019-06-26T21:48:04.171Z,100900.00
2019-06-26T21:50:37.140Z,100901.00
2019-06-26T21:53:10.291Z,100902.00
2019-06-26T21:55:46.033Z,100910.00
2019-06-26T21:58:37.594Z,100906.00
2019-06-26T22:01:29.721Z,100913.00
2019-06-26T22:04:21.664Z,100912.00
2019-06-26T22:06:59.671Z,100914.00
2019-06-26T22:09:51.176Z,100917.00
2019-06-26T22:12:24.621Z,100926.00
2019-06-26T22:14:57.850Z,100924.00
2019-06-26T22:17:30.875Z,100922.00
2019-06-26T22:20:09.763Z,100922.00
2019-06-26T22:22:40.941Z,100921.00
2019-06-26T22:25:14.595Z,100918.00
2019-06-26T22:27:47.630Z,100919.00
2019-06-26T22:30:22.541Z,100932.00
2019-06-26T22:32:55.710Z,100926.00
2019-06-26T22:35:31.134Z,100932.00
2019-06-26T22:38:05.979Z,100920.00
2019-06-26T22:40:38.756Z,100929.00
2019-06-26T22:43:11.568Z,100930.00
2019-06-26T22:45:44.464Z,100925.00
2019-06-26T22:48:17.284Z,100926.00
2019-06-26T22:50:50.115Z,100932.00
2019-06-26T22:53:22.984Z,100930.00
2019-06-26T22:56:07.203Z,100934.00
2019-06-26T22:58:30.804Z,100934.00
2019-06-26T23:01:03.940Z,100940.00
2019-06-26T23:03:36.778Z,100935.00
2019-06-26T23:06:09.764Z,100934.00
2019-06-26T23:08:42.586Z,100941.00
2019-06-26T23:11:15.516Z,100945.00
2019-06-26T23:13:48.484Z,100951.00
2019-06-26T23:16:21.336Z,100951.00
2019-06-26T23:18:54.169Z,100943.00
2019-06-26T23:21:27.093Z,100945.00
2019-06-26T23:23:59.923Z,100955.00
2019-06-26T23:26:32.933Z,100951.00
2019-06-26T23:29:05.776Z,100940.00
2019-06-26T23:31:38.655Z,100946.00
2019-06-26T23:34:11.457Z,100951.00
2019-06-26T23:36:44.298Z,100951.00
2019-06-26T23:39:17.361Z,100958.00
2019-06-26T23:41:50.161Z,100955.00
2019-06-26T23:44:23.000Z,100965.00
2019-06-26T23:46:55.835Z,100959.00
2019-06-26T23:49:28.655Z,100962.00
2019-06-26T23:52:02.817Z,100966.00
2019-06-26T23:54:35.620Z,100969.00
2019-06-26T23:57:08.492Z,100966.00
2019-06-26T23:59:41.287Z,100970.00
